sensor_id;sensor_type;location;lat;lon;timestamp;P1;durP1;ratioP1;P2;durP2;ratioP2
70216;SDS011;65567;55.684;37.570;2022-12-07T00:01:28;2.25;;;1.45;;
70216;SDS011;65567;55.684;37.570;2022-12-07T00:04:04;4.38;;;1.88;;
70216;SDS011;65567;55.684;37.570;2022-12-07T00:06:34;5.95;;;2.30;;
70216;SDS011;65567;55.684;37.570;2022-12-07T00:09:06;4.85;;;2.38;;
70216;SDS011;65567;55.684;37.570;2022-12-07T00:11:33;5.22;;;1.65;;
70216;SDS011;65567;55.684;37.570;2022-12-07T00:14:00;3.92;;;1.80;;
70216;SDS011;65567;55.684;37.570;2022-12-07T00:16:29;5.05;;;1.33;;
70216;SDS011;65567;55.684;37.570;2022-12-07T00:18:56;4.95;;;1.95;;
70216;SDS011;65567;55.684;37.570;2022-12-07T00:21:23;4.85;;;2.42;;
70216;SDS011;65567;55.684;37.570;2022-12-07T00:23:53;2.72;;;1.33;;
70216;SDS011;65567;55.684;37.570;2022-12-07T00:28:55;2.85;;;1.60;;
70216;SDS011;65567;55.684;37.570;2022-12-07T00:31:24;5.00;;;1.98;;
70216;SDS011;65567;55.684;37.570;2022-12-07T00:33:54;5.20;;;2.10;;
70216;SDS011;65567;55.684;37.570;2022-12-07T00:36:22;3.55;;;1.77;;
70216;SDS011;65567;55.684;37.570;2022-12-07T00:38:49;5.78;;;2.25;;
70216;SDS011;65567;55.684;37.570;2022-12-07T00:41:15;3.67;;;1.63;;
70216;SDS011;65567;55.684;37.570;2022-12-07T00:43:46;4.47;;;2.00;;
70216;SDS011;65567;55.684;37.570;2022-12-07T00:46:13;2.17;;;1.25;;
70216;SDS011;65567;55.684;37.570;2022-12-07T00:48:39;5.93;;;2.65;;
70216;SDS011;65567;55.684;37.570;2022-12-07T00:51:05;3.00;;;1.77;;
70216;SDS011;65567;55.684;37.570;2022-12-07T00:53:35;4.00;;;1.65;;
70216;SDS011;65567;55.684;37.570;2022-12-07T00:56:05;1.98;;;0.93;;
70216;SDS011;65567;55.684;37.570;2022-12-07T00:58:32;4.70;;;2.38;;
70216;SDS011;65567;55.684;37.570;2022-12-07T01:00:59;5.07;;;1.35;;
70216;SDS011;65567;55.684;37.570;2022-12-07T01:03:27;5.90;;;3.00;;
70216;SDS011;65567;55.684;37.570;2022-12-07T01:05:54;7.35;;;3.33;;
70216;SDS011;65567;55.684;37.570;2022-12-07T01:08:20;5.10;;;1.67;;
70216;SDS011;65567;55.684;37.570;2022-12-07T01:10:47;3.70;;;1.65;;
70216;SDS011;65567;55.684;37.570;2022-12-07T01:13:12;4.63;;;2.28;;
70216;SDS011;65567;55.684;37.570;2022-12-07T01:15:40;3.22;;;1.80;;
70216;SDS011;65567;55.684;37.570;2022-12-07T01:20:35;5.07;;;2.33;;
70216;SDS011;65567;55.684;37.570;2022-12-07T01:23:02;2.88;;;1.42;;
70216;SDS011;65567;55.684;37.570;2022-12-07T01:25:28;4.28;;;2.08;;
70216;SDS011;65567;55.684;37.570;2022-12-07T01:27:54;2.92;;;1.33;;
70216;SDS011;65567;55.684;37.570;2022-12-07T01:30:20;4.25;;;2.25;;
70216;SDS011;65567;55.684;37.570;2022-12-07T01:32:46;4.43;;;2.72;;
70216;SDS011;65567;55.684;37.570;2022-12-07T01:35:12;3.45;;;2.05;;
70216;SDS011;65567;55.684;37.570;2022-12-07T01:37:38;3.63;;;1.75;;
70216;SDS011;65567;55.684;37.570;2022-12-07T01:40:05;2.97;;;1.58;;
70216;SDS011;65567;55.684;37.570;2022-12-07T01:42:33;5.13;;;2.22;;
70216;SDS011;65567;55.684;37.570;2022-12-07T01:47:48;3.72;;;2.20;;
70216;SDS011;65567;55.684;37.570;2022-12-07T01:50:17;2.85;;;1.50;;
70216;SDS011;65567;55.684;37.570;2022-12-07T01:52:44;5.57;;;2.78;;
70216;SDS011;65567;55.684;37.570;2022-12-07T01:55:14;6.25;;;2.83;;
70216;SDS011;65567;55.684;37.570;2022-12-07T01:57:43;3.58;;;1.70;;
70216;SDS011;65567;55.684;37.570;2022-12-07T02:02:40;5.40;;;1.92;;
70216;SDS011;65567;55.684;37.570;2022-12-07T02:05:27;4.35;;;1.80;;
70216;SDS011;65567;55.684;37.570;2022-12-07T02:07:54;2.90;;;1.45;;
70216;SDS011;65567;55.684;37.570;2022-12-07T02:10:23;6.07;;;2.65;;
70216;SDS011;65567;55.684;37.570;2022-12-07T02:12:54;4.30;;;1.92;;
70216;SDS011;65567;55.684;37.570;2022-12-07T02:15:35;3.30;;;1.77;;
70216;SDS011;65567;55.684;37.570;2022-12-07T02:18:30;3.38;;;1.80;;
70216;SDS011;65567;55.684;37.570;2022-12-07T02:26:38;6.25;;;2.30;;
70216;SDS011;65567;55.684;37.570;2022-12-07T02:34:44;4.05;;;2.60;;
70216;SDS011;65567;55.684;37.570;2022-12-07T02:39:54;4.40;;;1.75;;
70216;SDS011;65567;55.684;37.570;2022-12-07T02:42:28;6.07;;;2.92;;
70216;SDS011;65567;55.684;37.570;2022-12-07T02:45:02;3.70;;;2.13;;
70216;SDS011;65567;55.684;37.570;2022-12-07T02:47:30;6.15;;;2.80;;
70216;SDS011;65567;55.684;37.570;2022-12-07T02:49:59;4.43;;;2.43;;
70216;SDS011;65567;55.684;37.570;2022-12-07T02:52:27;5.93;;;2.95;;
70216;SDS011;65567;55.684;37.570;2022-12-07T02:54:53;4.80;;;1.95;;
70216;SDS011;65567;55.684;37.570;2022-12-07T03:00:18;5.05;;;1.45;;
70216;SDS011;65567;55.684;37.570;2022-12-07T03:03:03;3.97;;;1.95;;
70216;SDS011;65567;55.684;37.570;2022-12-07T03:08:51;3.72;;;1.70;;
70216;SDS011;65567;55.684;37.570;2022-12-07T03:11:45;9.10;;;2.05;;
70216;SDS011;65567;55.684;37.570;2022-12-07T03:14:36;2.30;;;1.45;;
70216;SDS011;65567;55.684;37.570;2022-12-07T03:17:12;5.80;;;2.17;;
70216;SDS011;65567;55.684;37.570;2022-12-07T03:19:42;3.47;;;1.85;;
70216;SDS011;65567;55.684;37.570;2022-12-07T03:22:11;4.63;;;2.25;;
70216;SDS011;65567;55.684;37.570;2022-12-07T03:24:45;5.15;;;1.30;;
70216;SDS011;65567;55.684;37.570;2022-12-07T03:27:19;4.93;;;2.22;;
70216;SDS011;65567;55.684;37.570;2022-12-07T03:32:49;5.25;;;2.22;;
70216;SDS011;65567;55.684;37.570;2022-12-07T03:35:27;2.83;;;1.75;;
70216;SDS011;65567;55.684;37.570;2022-12-07T03:38:08;2.63;;;1.15;;
70216;SDS011;65567;55.684;37.570;2022-12-07T03:43:35;3.15;;;1.85;;
70216;SDS011;65567;55.684;37.570;2022-12-07T03:46:13;3.55;;;1.45;;
70216;SDS011;65567;55.684;37.570;2022-12-07T03:51:51;3.50;;;1.63;;
70216;SDS011;65567;55.684;37.570;2022-12-07T03:56:51;6.20;;;2.83;;
70216;SDS011;65567;55.684;37.570;2022-12-07T03:59:18;2.50;;;1.00;;
70216;SDS011;65567;55.684;37.570;2022-12-07T04:01:51;3.60;;;1.90;;
70216;SDS011;65567;55.684;37.570;2022-12-07T04:04:19;5.78;;;2.63;;
70216;SDS011;65567;55.684;37.570;2022-12-07T04:06:46;3.45;;;1.80;;
70216;SDS011;65567;55.684;37.570;2022-12-07T04:09:12;2.47;;;1.08;;
70216;SDS011;65567;55.684;37.570;2022-12-07T04:11:39;4.75;;;2.15;;
70216;SDS011;65567;55.684;37.570;2022-12-07T04:14:05;4.05;;;1.90;;
70216;SDS011;65567;55.684;37.570;2022-12-07T04:16:47;0.85;;;0.47;;
70216;SDS011;65567;55.684;37.570;2022-12-07T04:19:15;2.05;;;1.13;;
70216;SDS011;65567;55.684;37.570;2022-12-07T04:21:42;3.70;;;1.67;;
70216;SDS011;65567;55.684;37.570;2022-12-07T04:24:08;5.20;;;2.38;;
70216;SDS011;65567;55.684;37.570;2022-12-07T04:26:34;4.68;;;2.28;;
70216;SDS011;65567;55.684;37.570;2022-12-07T04:29:00;4.80;;;2.03;;
70216;SDS011;65567;55.684;37.570;2022-12-07T04:31:26;4.95;;;2.42;;
70216;SDS011;65567;55.684;37.570;2022-12-07T04:33:52;2.53;;;1.30;;
70216;SDS011;65567;55.684;37.570;2022-12-07T04:36:18;6.22;;;2.03;;
70216;SDS011;65567;55.684;37.570;2022-12-07T04:38:45;5.20;;;1.95;;
70216;SDS011;65567;55.684;37.570;2022-12-07T04:41:12;4.78;;;1.95;;
70216;SDS011;65567;55.684;37.570;2022-12-07T04:43:38;6.40;;;2.72;;
70216;SDS011;65567;55.684;37.570;2022-12-07T04:46:04;5.35;;;2.47;;
70216;SDS011;65567;55.684;37.570;2022-12-07T04:48:30;2.30;;;1.45;;
70216;SDS011;65567;55.684;37.570;2022-12-07T04:50:56;4.85;;;2.63;;
70216;SDS011;65567;55.684;37.570;2022-12-07T04:53:22;5.57;;;3.03;;
70216;SDS011;65567;55.684;37.570;2022-12-07T04:55:48;6.00;;;2.13;;
70216;SDS011;65567;55.684;37.570;2022-12-07T04:58:14;3.45;;;1.42;;
70216;SDS011;65567;55.684;37.570;2022-12-07T05:00:40;4.78;;;3.03;;
70216;SDS011;65567;55.684;37.570;2022-12-07T05:03:05;2.47;;;1.65;;
70216;SDS011;65567;55.684;37.570;2022-12-07T05:05:31;7.72;;;2.90;;
70216;SDS011;65567;55.684;37.570;2022-12-07T05:07:57;3.45;;;1.75;;
70216;SDS011;65567;55.684;37.570;2022-12-07T05:10:23;3.50;;;1.73;;
70216;SDS011;65567;55.684;37.570;2022-12-07T05:12:49;8.60;;;3.03;;
70216;SDS011;65567;55.684;37.570;2022-12-07T05:15:15;3.35;;;2.05;;
70216;SDS011;65567;55.684;37.570;2022-12-07T05:17:41;7.10;;;3.50;;
70216;SDS011;65567;55.684;37.570;2022-12-07T05:20:08;5.75;;;2.10;;
70216;SDS011;65567;55.684;37.570;2022-12-07T05:22:34;3.70;;;1.45;;
70216;SDS011;65567;55.684;37.570;2022-12-07T05:25:01;3.35;;;1.65;;
70216;SDS011;65567;55.684;37.570;2022-12-07T05:27:27;6.55;;;3.15;;
70216;SDS011;65567;55.684;37.570;2022-12-07T05:29:53;5.45;;;1.70;;
70216;SDS011;65567;55.684;37.570;2022-12-07T05:32:18;10.52;;;2.25;;
70216;SDS011;65567;55.684;37.570;2022-12-07T05:34:44;11.07;;;3.55;;
70216;SDS011;65567;55.684;37.570;2022-12-07T05:37:10;6.90;;;2.42;;
70216;SDS011;65567;55.684;37.570;2022-12-07T05:39:36;3.42;;;1.75;;
70216;SDS011;65567;55.684;37.570;2022-12-07T05:42:06;4.55;;;2.47;;
70216;SDS011;65567;55.684;37.570;2022-12-07T05:44:40;5.53;;;2.67;;
70216;SDS011;65567;55.684;37.570;2022-12-07T05:47:08;6.47;;;2.55;;
70216;SDS011;65567;55.684;37.570;2022-12-07T05:49:34;5.30;;;2.05;;
70216;SDS011;65567;55.684;37.570;2022-12-07T05:52:00;4.65;;;1.60;;
70216;SDS011;65567;55.684;37.570;2022-12-07T05:54:26;7.68;;;2.25;;
70216;SDS011;65567;55.684;37.570;2022-12-07T05:56:52;6.72;;;2.67;;
70216;SDS011;65567;55.684;37.570;2022-12-07T05:59:18;7.10;;;3.00;;
70216;SDS011;65567;55.684;37.570;2022-12-07T06:01:58;4.78;;;2.55;;
70216;SDS011;65567;55.684;37.570;2022-12-07T06:04:29;8.32;;;3.65;;
70216;SDS011;65567;55.684;37.570;2022-12-07T06:06:57;5.55;;;2.92;;
70216;SDS011;65567;55.684;37.570;2022-12-07T06:09:24;11.15;;;3.60;;
70216;SDS011;65567;55.684;37.570;2022-12-07T06:11:51;6.20;;;3.03;;
70216;SDS011;65567;55.684;37.570;2022-12-07T06:14:36;4.63;;;2.60;;
70216;SDS011;65567;55.684;37.570;2022-12-07T06:17:02;6.43;;;2.72;;
70216;SDS011;65567;55.684;37.570;2022-12-07T06:19:29;6.75;;;2.85;;
70216;SDS011;65567;55.684;37.570;2022-12-07T06:21:55;5.47;;;2.60;;
70216;SDS011;65567;55.684;37.570;2022-12-07T06:24:21;10.88;;;4.22;;
70216;SDS011;65567;55.684;37.570;2022-12-07T06:26:47;10.05;;;4.38;;
70216;SDS011;65567;55.684;37.570;2022-12-07T06:29:14;8.27;;;2.90;;
70216;SDS011;65567;55.684;37.570;2022-12-07T06:31:40;9.27;;;4.40;;
70216;SDS011;65567;55.684;37.570;2022-12-07T06:34:08;8.18;;;3.75;;
70216;SDS011;65567;55.684;37.570;2022-12-07T06:36:36;22.63;;;5.63;;
70216;SDS011;65567;55.684;37.570;2022-12-07T06:39:02;10.32;;;3.22;;
70216;SDS011;65567;55.684;37.570;2022-12-07T06:41:28;6.93;;;2.47;;
70216;SDS011;65567;55.684;37.570;2022-12-07T06:43:54;6.55;;;3.22;;
70216;SDS011;65567;55.684;37.570;2022-12-07T06:46:20;15.68;;;4.25;;
70216;SDS011;65567;55.684;37.570;2022-12-07T06:48:46;9.30;;;4.80;;
70216;SDS011;65567;55.684;37.570;2022-12-07T06:51:12;6.47;;;3.30;;
70216;SDS011;65567;55.684;37.570;2022-12-07T06:53:38;11.65;;;5.57;;
70216;SDS011;65567;55.684;37.570;2022-12-07T06:56:04;9.25;;;3.13;;
70216;SDS011;65567;55.684;37.570;2022-12-07T06:58:31;8.32;;;4.00;;
70216;SDS011;65567;55.684;37.570;2022-12-07T07:00:57;7.22;;;3.25;;
70216;SDS011;65567;55.684;37.570;2022-12-07T07:03:23;7.55;;;3.30;;
70216;SDS011;65567;55.684;37.570;2022-12-07T07:05:49;10.57;;;5.75;;
70216;SDS011;65567;55.684;37.570;2022-12-07T07:08:15;12.73;;;4.90;;
70216;SDS011;65567;55.684;37.570;2022-12-07T07:10:41;6.05;;;2.90;;
70216;SDS011;65567;55.684;37.570;2022-12-07T07:13:07;10.57;;;3.45;;
70216;SDS011;65567;55.684;37.570;2022-12-07T07:15:34;8.02;;;4.00;;
70216;SDS011;65567;55.684;37.570;2022-12-07T07:18:02;8.32;;;3.22;;
70216;SDS011;65567;55.684;37.570;2022-12-07T07:20:28;5.20;;;3.22;;
70216;SDS011;65567;55.684;37.570;2022-12-07T07:22:54;10.02;;;4.43;;
70216;SDS011;65567;55.684;37.570;2022-12-07T07:25:21;8.07;;;3.70;;
70216;SDS011;65567;55.684;37.570;2022-12-07T07:27:47;7.65;;;3.50;;
70216;SDS011;65567;55.684;37.570;2022-12-07T07:30:13;9.90;;;4.95;;
70216;SDS011;65567;55.684;37.570;2022-12-07T07:32:39;8.63;;;4.18;;
70216;SDS011;65567;55.684;37.570;2022-12-07T07:35:05;10.95;;;4.82;;
70216;SDS011;65567;55.684;37.570;2022-12-07T07:37:31;6.65;;;3.67;;
70216;SDS011;65567;55.684;37.570;2022-12-07T07:40:00;5.40;;;2.50;;
70216;SDS011;65567;55.684;37.570;2022-12-07T07:42:26;6.15;;;3.40;;
70216;SDS011;65567;55.684;37.570;2022-12-07T07:44:51;7.53;;;3.35;;
70216;SDS011;65567;55.684;37.570;2022-12-07T07:47:20;7.32;;;3.72;;
70216;SDS011;65567;55.684;37.570;2022-12-07T07:49:46;6.57;;;2.45;;
70216;SDS011;65567;55.684;37.570;2022-12-07T07:52:12;5.38;;;2.60;;
70216;SDS011;65567;55.684;37.570;2022-12-07T07:54:38;10.13;;;5.15;;
70216;SDS011;65567;55.684;37.570;2022-12-07T07:57:03;12.68;;;5.40;;
70216;SDS011;65567;55.684;37.570;2022-12-07T07:59:29;8.30;;;4.50;;
70216;SDS011;65567;55.684;37.570;2022-12-07T08:01:55;11.32;;;4.95;;
70216;SDS011;65567;55.684;37.570;2022-12-07T08:04:21;14.02;;;5.68;;
70216;SDS011;65567;55.684;37.570;2022-12-07T08:06:47;12.75;;;3.88;;
70216;SDS011;65567;55.684;37.570;2022-12-07T08:09:13;8.07;;;4.07;;
70216;SDS011;65567;55.684;37.570;2022-12-07T08:11:39;7.20;;;4.15;;
70216;SDS011;65567;55.684;37.570;2022-12-07T08:14:05;14.68;;;4.78;;
70216;SDS011;65567;55.684;37.570;2022-12-07T08:16:31;7.55;;;4.35;;
70216;SDS011;65567;55.684;37.570;2022-12-07T08:18:57;11.52;;;5.13;;
70216;SDS011;65567;55.684;37.570;2022-12-07T08:21:22;12.13;;;5.28;;
70216;SDS011;65567;55.684;37.570;2022-12-07T08:23:48;9.07;;;4.32;;
70216;SDS011;65567;55.684;37.570;2022-12-07T08:26:15;6.15;;;3.38;;
70216;SDS011;65567;55.684;37.570;2022-12-07T08:28:41;20.13;;;3.65;;
70216;SDS011;65567;55.684;37.570;2022-12-07T08:31:10;7.20;;;3.40;;
70216;SDS011;65567;55.684;37.570;2022-12-07T08:36:04;5.15;;;3.08;;
70216;SDS011;65567;55.684;37.570;2022-12-07T08:38:37;9.85;;;4.88;;
70216;SDS011;65567;55.684;37.570;2022-12-07T08:41:05;29.10;;;5.03;;
70216;SDS011;65567;55.684;37.570;2022-12-07T08:43:31;6.28;;;3.20;;
70216;SDS011;65567;55.684;37.570;2022-12-07T08:46:13;11.35;;;4.63;;
70216;SDS011;65567;55.684;37.570;2022-12-07T08:48:54;10.02;;;4.45;;
70216;SDS011;65567;55.684;37.570;2022-12-07T08:51:24;10.50;;;4.00;;
70216;SDS011;65567;55.684;37.570;2022-12-07T08:53:50;8.02;;;4.00;;
70216;SDS011;65567;55.684;37.570;2022-12-07T08:56:17;5.40;;;2.85;;
70216;SDS011;65567;55.684;37.570;2022-12-07T08:58:45;8.32;;;5.40;;
70216;SDS011;65567;55.684;37.570;2022-12-07T09:01:11;7.57;;;3.95;;
70216;SDS011;65567;55.684;37.570;2022-12-07T09:03:37;8.05;;;3.38;;
70216;SDS011;65567;55.684;37.570;2022-12-07T09:06:02;6.70;;;3.35;;
70216;SDS011;65567;55.684;37.570;2022-12-07T09:08:33;9.02;;;4.55;;
70216;SDS011;65567;55.684;37.570;2022-12-07T09:11:05;8.45;;;4.28;;
70216;SDS011;65567;55.684;37.570;2022-12-07T09:13:30;8.07;;;3.67;;
70216;SDS011;65567;55.684;37.570;2022-12-07T09:15:56;7.35;;;4.03;;
70216;SDS011;65567;55.684;37.570;2022-12-07T09:18:22;8.02;;;4.53;;
70216;SDS011;65567;55.684;37.570;2022-12-07T09:20:50;8.82;;;4.20;;
70216;SDS011;65567;55.684;37.570;2022-12-07T09:23:16;6.00;;;3.85;;
70216;SDS011;65567;55.684;37.570;2022-12-07T09:25:42;6.32;;;3.95;;
70216;SDS011;65567;55.684;37.570;2022-12-07T09:28:11;7.93;;;4.25;;
70216;SDS011;65567;55.684;37.570;2022-12-07T09:30:45;13.13;;;4.40;;
70216;SDS011;65567;55.684;37.570;2022-12-07T09:33:14;12.40;;;5.43;;
70216;SDS011;65567;55.684;37.570;2022-12-07T09:35:44;9.45;;;4.75;;
70216;SDS011;65567;55.684;37.570;2022-12-07T09:38:11;6.88;;;3.85;;
70216;SDS011;65567;55.684;37.570;2022-12-07T09:40:38;15.65;;;5.72;;
70216;SDS011;65567;55.684;37.570;2022-12-07T09:43:05;9.90;;;4.40;;
70216;SDS011;65567;55.684;37.570;2022-12-07T09:45:37;6.70;;;3.65;;
70216;SDS011;65567;55.684;37.570;2022-12-07T09:48:04;7.85;;;3.85;;
70216;SDS011;65567;55.684;37.570;2022-12-07T09:50:30;7.28;;;3.40;;
70216;SDS011;65567;55.684;37.570;2022-12-07T09:53:08;6.60;;;3.08;;
70216;SDS011;65567;55.684;37.570;2022-12-07T09:55:38;8.27;;;3.85;;
70216;SDS011;65567;55.684;37.570;2022-12-07T09:58:08;4.60;;;3.42;;
70216;SDS011;65567;55.684;37.570;2022-12-07T10:00:44;5.43;;;2.90;;
70216;SDS011;65567;55.684;37.570;2022-12-07T10:03:10;7.15;;;3.47;;
70216;SDS011;65567;55.684;37.570;2022-12-07T10:08:11;9.77;;;5.10;;
70216;SDS011;65567;55.684;37.570;2022-12-07T10:10:38;9.10;;;3.55;;
70216;SDS011;65567;55.684;37.570;2022-12-07T10:13:09;8.10;;;4.50;;
70216;SDS011;65567;55.684;37.570;2022-12-07T10:20:50;6.22;;;2.70;;
70216;SDS011;65567;55.684;37.570;2022-12-07T10:23:27;4.60;;;2.28;;
70216;SDS011;65567;55.684;37.570;2022-12-07T10:25:53;7.32;;;3.47;;
70216;SDS011;65567;55.684;37.570;2022-12-07T10:28:20;9.93;;;4.40;;
70216;SDS011;65567;55.684;37.570;2022-12-07T10:31:15;5.78;;;3.05;;
70216;SDS011;65567;55.684;37.570;2022-12-07T10:34:21;10.70;;;4.45;;
70216;SDS011;65567;55.684;37.570;2022-12-07T10:36:50;7.40;;;4.43;;
70216;SDS011;65567;55.684;37.570;2022-12-07T10:39:18;8.32;;;3.67;;
70216;SDS011;65567;55.684;37.570;2022-12-07T10:41:54;8.20;;;3.67;;
70216;SDS011;65567;55.684;37.570;2022-12-07T10:44:32;8.45;;;5.28;;
70216;SDS011;65567;55.684;37.570;2022-12-07T11:01:29;9.02;;;4.10;;
70216;SDS011;65567;55.684;37.570;2022-12-07T11:04:15;10.38;;;4.40;;
70216;SDS011;65567;55.684;37.570;2022-12-07T11:06:54;6.65;;;3.70;;
70216;SDS011;65567;55.684;37.570;2022-12-07T11:09:30;5.82;;;2.85;;
70216;SDS011;65567;55.684;37.570;2022-12-07T11:12:11;9.95;;;4.70;;
70216;SDS011;65567;55.684;37.570;2022-12-07T11:20:34;9.40;;;4.68;;
70216;SDS011;65567;55.684;37.570;2022-12-07T11:23:13;7.10;;;3.90;;
70216;SDS011;65567;55.684;37.570;2022-12-07T11:25:59;9.73;;;4.30;;
70216;SDS011;65567;55.684;37.570;2022-12-07T11:31:47;10.88;;;5.70;;
70216;SDS011;65567;55.684;37.570;2022-12-07T11:36:58;6.75;;;4.10;;
70216;SDS011;65567;55.684;37.570;2022-12-07T11:39:33;10.27;;;4.43;;
70216;SDS011;65567;55.684;37.570;2022-12-07T11:42:12;5.72;;;2.80;;
70216;SDS011;65567;55.684;37.570;2022-12-07T11:50:26;10.30;;;4.38;;
70216;SDS011;65567;55.684;37.570;2022-12-07T11:53:02;9.38;;;4.43;;
70216;SDS011;65567;55.684;37.570;2022-12-07T11:55:32;6.82;;;3.80;;
70216;SDS011;65567;55.684;37.570;2022-12-07T11:58:18;5.13;;;3.55;;
70216;SDS011;65567;55.684;37.570;2022-12-07T12:03:47;10.32;;;4.68;;
70216;SDS011;65567;55.684;37.570;2022-12-07T12:06:15;9.50;;;4.38;;
70216;SDS011;65567;55.684;37.570;2022-12-07T12:08:43;7.00;;;3.40;;
70216;SDS011;65567;55.684;37.570;2022-12-07T12:14:26;14.85;;;4.43;;
70216;SDS011;65567;55.684;37.570;2022-12-07T12:22:48;8.80;;;4.25;;
70216;SDS011;65567;55.684;37.570;2022-12-07T12:28:20;9.70;;;5.15;;
70216;SDS011;65567;55.684;37.570;2022-12-07T12:31:10;7.82;;;4.25;;
70216;SDS011;65567;55.684;37.570;2022-12-07T12:33:42;8.70;;;4.88;;
70216;SDS011;65567;55.684;37.570;2022-12-07T12:57:32;14.43;;;7.18;;
70216;SDS011;65567;55.684;37.570;2022-12-07T13:00:00;12.25;;;6.00;;
70216;SDS011;65567;55.684;37.570;2022-12-07T13:05:21;9.75;;;3.75;;
70216;SDS011;65567;55.684;37.570;2022-12-07T13:18:17;7.10;;;4.05;;
70216;SDS011;65567;55.684;37.570;2022-12-07T13:28:41;9.82;;;6.13;;
70216;SDS011;65567;55.684;37.570;2022-12-07T13:31:23;6.80;;;4.53;;
70216;SDS011;65567;55.684;37.570;2022-12-07T13:33:57;7.60;;;4.15;;
70216;SDS011;65567;55.684;37.570;2022-12-07T13:36:24;8.43;;;5.10;;
70216;SDS011;65567;55.684;37.570;2022-12-07T13:38:55;11.38;;;4.07;;
70216;SDS011;65567;55.684;37.570;2022-12-07T13:41:24;7.50;;;4.43;;
70216;SDS011;65567;55.684;37.570;2022-12-07T13:44:02;12.98;;;6.15;;
70216;SDS011;65567;55.684;37.570;2022-12-07T13:46:42;12.75;;;5.88;;
70216;SDS011;65567;55.684;37.570;2022-12-07T13:49:16;13.00;;;6.70;;
70216;SDS011;65567;55.684;37.570;2022-12-07T13:51:44;13.68;;;6.57;;
70216;SDS011;65567;55.684;37.570;2022-12-07T13:54:11;16.10;;;5.95;;
70216;SDS011;65567;55.684;37.570;2022-12-07T13:56:39;11.25;;;5.15;;
70216;SDS011;65567;55.684;37.570;2022-12-07T13:59:10;10.25;;;6.15;;
70216;SDS011;65567;55.684;37.570;2022-12-07T14:01:49;6.68;;;3.92;;
70216;SDS011;65567;55.684;37.570;2022-12-07T14:04:17;10.75;;;6.65;;
70216;SDS011;65567;55.684;37.570;2022-12-07T14:06:52;8.05;;;4.82;;
70216;SDS011;65567;55.684;37.570;2022-12-07T14:09:23;11.15;;;6.50;;
70216;SDS011;65567;55.684;37.570;2022-12-07T14:11:52;8.20;;;5.13;;
70216;SDS011;65567;55.684;37.570;2022-12-07T14:14:21;12.35;;;4.63;;
70216;SDS011;65567;55.684;37.570;2022-12-07T14:19:48;13.60;;;7.45;;
70216;SDS011;65567;55.684;37.570;2022-12-07T14:27:51;12.93;;;7.10;;
70216;SDS011;65567;55.684;37.570;2022-12-07T14:30:32;9.38;;;4.53;;
70216;SDS011;65567;55.684;37.570;2022-12-07T14:33:00;15.18;;;8.18;;
70216;SDS011;65567;55.684;37.570;2022-12-07T14:35:28;11.15;;;5.53;;
70216;SDS011;65567;55.684;37.570;2022-12-07T14:37:55;10.90;;;5.13;;
70216;SDS011;65567;55.684;37.570;2022-12-07T14:40:22;9.90;;;5.10;;
70216;SDS011;65567;55.684;37.570;2022-12-07T14:42:51;9.07;;;4.97;;
70216;SDS011;65567;55.684;37.570;2022-12-07T14:45:21;10.25;;;4.82;;
70216;SDS011;65567;55.684;37.570;2022-12-07T14:47:48;8.82;;;3.97;;
70216;SDS011;65567;55.684;37.570;2022-12-07T14:50:15;17.67;;;6.88;;
70216;SDS011;65567;55.684;37.570;2022-12-07T14:52:44;11.00;;;5.22;;
70216;SDS011;65567;55.684;37.570;2022-12-07T14:55:19;6.03;;;2.88;;
70216;SDS011;65567;55.684;37.570;2022-12-07T14:57:45;8.25;;;4.72;;
70216;SDS011;65567;55.684;37.570;2022-12-07T15:00:15;9.77;;;4.43;;
70216;SDS011;65567;55.684;37.570;2022-12-07T15:02:42;10.32;;;4.72;;
70216;SDS011;65567;55.684;37.570;2022-12-07T15:05:12;8.00;;;4.22;;
70216;SDS011;65567;55.684;37.570;2022-12-07T15:07:38;7.25;;;3.20;;
70216;SDS011;65567;55.684;37.570;2022-12-07T15:10:05;8.40;;;4.25;;
70216;SDS011;65567;55.684;37.570;2022-12-07T15:12:38;17.40;;;5.72;;
70216;SDS011;65567;55.684;37.570;2022-12-07T15:15:04;11.73;;;5.53;;
70216;SDS011;65567;55.684;37.570;2022-12-07T15:17:30;13.57;;;5.68;;
70216;SDS011;65567;55.684;37.570;2022-12-07T15:19:56;9.23;;;4.63;;
70216;SDS011;65567;55.684;37.570;2022-12-07T15:22:22;13.20;;;5.85;;
70216;SDS011;65567;55.684;37.570;2022-12-07T15:24:48;14.55;;;5.75;;
70216;SDS011;65567;55.684;37.570;2022-12-07T15:27:14;12.68;;;6.43;;
70216;SDS011;65567;55.684;37.570;2022-12-07T15:29:40;12.27;;;5.38;;
70216;SDS011;65567;55.684;37.570;2022-12-07T15:32:05;11.43;;;7.68;;
70216;SDS011;65567;55.684;37.570;2022-12-07T15:34:31;11.45;;;6.88;;
70216;SDS011;65567;55.684;37.570;2022-12-07T15:36:57;10.50;;;6.00;;
70216;SDS011;65567;55.684;37.570;2022-12-07T15:39:23;8.23;;;4.80;;
70216;SDS011;65567;55.684;37.570;2022-12-07T15:41:49;14.10;;;7.25;;
70216;SDS011;65567;55.684;37.570;2022-12-07T15:44:15;13.23;;;6.93;;
70216;SDS011;65567;55.684;37.570;2022-12-07T15:47:00;11.77;;;4.85;;
70216;SDS011;65567;55.684;37.570;2022-12-07T15:49:27;8.45;;;4.80;;
70216;SDS011;65567;55.684;37.570;2022-12-07T15:51:53;13.23;;;5.65;;
70216;SDS011;65567;55.684;37.570;2022-12-07T15:54:21;11.07;;;4.00;;
70216;SDS011;65567;55.684;37.570;2022-12-07T15:56:49;9.75;;;5.70;;
70216;SDS011;65567;55.684;37.570;2022-12-07T15:59:15;9.48;;;4.75;;
70216;SDS011;65567;55.684;37.570;2022-12-07T16:01:41;8.00;;;4.97;;
70216;SDS011;65567;55.684;37.570;2022-12-07T16:04:08;6.22;;;3.78;;
70216;SDS011;65567;55.684;37.570;2022-12-07T16:06:34;9.77;;;5.80;;
70216;SDS011;65567;55.684;37.570;2022-12-07T16:09:00;8.35;;;4.50;;
70216;SDS011;65567;55.684;37.570;2022-12-07T16:11:26;15.50;;;6.50;;
70216;SDS011;65567;55.684;37.570;2022-12-07T16:13:52;10.32;;;6.50;;
70216;SDS011;65567;55.684;37.570;2022-12-07T16:16:18;13.25;;;6.90;;
70216;SDS011;65567;55.684;37.570;2022-12-07T16:18:45;12.85;;;6.35;;
70216;SDS011;65567;55.684;37.570;2022-12-07T16:21:13;6.82;;;4.20;;
70216;SDS011;65567;55.684;37.570;2022-12-07T16:23:39;7.68;;;4.43;;
70216;SDS011;65567;55.684;37.570;2022-12-07T16:26:09;16.40;;;7.15;;
70216;SDS011;65567;55.684;37.570;2022-12-07T16:28:37;8.98;;;5.32;;
70216;SDS011;65567;55.684;37.570;2022-12-07T16:31:07;11.65;;;6.43;;
70216;SDS011;65567;55.684;37.570;2022-12-07T16:33:38;10.32;;;4.88;;
70216;SDS011;65567;55.684;37.570;2022-12-07T16:36:06;9.70;;;5.05;;
70216;SDS011;65567;55.684;37.570;2022-12-07T16:38:34;8.95;;;4.57;;
70216;SDS011;65567;55.684;37.570;2022-12-07T16:41:00;10.25;;;5.03;;
70216;SDS011;65567;55.684;37.570;2022-12-07T16:43:26;10.30;;;5.55;;
70216;SDS011;65567;55.684;37.570;2022-12-07T16:45:53;10.95;;;5.22;;
70216;SDS011;65567;55.684;37.570;2022-12-07T16:48:19;8.73;;;4.95;;
70216;SDS011;65567;55.684;37.570;2022-12-07T16:50:45;12.70;;;7.00;;
70216;SDS011;65567;55.684;37.570;2022-12-07T16:53:12;9.10;;;4.82;;
70216;SDS011;65567;55.684;37.570;2022-12-07T16:55:40;9.15;;;4.97;;
70216;SDS011;65567;55.684;37.570;2022-12-07T16:58:08;7.13;;;4.10;;
70216;SDS011;65567;55.684;37.570;2022-12-07T17:00:34;8.73;;;4.85;;
70216;SDS011;65567;55.684;37.570;2022-12-07T17:03:00;8.23;;;4.43;;
70216;SDS011;65567;55.684;37.570;2022-12-07T17:05:26;12.32;;;6.40;;
70216;SDS011;65567;55.684;37.570;2022-12-07T17:07:54;10.60;;;5.82;;
70216;SDS011;65567;55.684;37.570;2022-12-07T17:10:21;13.70;;;5.68;;
70216;SDS011;65567;55.684;37.570;2022-12-07T17:12:47;9.55;;;3.67;;